createdAt,value
2023-05-16T00:01:24.892Z,12.63
2023-05-16T00:03:54.288Z,11.30
2023-05-16T00:06:22.556Z,10.93
2023-05-16T00:08:50.347Z,10.90
2023-05-16T00:11:18.357Z,10.97
2023-05-16T00:13:47.776Z,10.20
2023-05-16T00:16:15.662Z,10.53
2023-05-16T00:18:45.587Z,11.27
2023-05-16T00:21:15.696Z,10.63
2023-05-16T00:23:43.603Z,11.03
2023-05-16T00:26:11.486Z,11.37
2023-05-16T00:28:42.576Z,11.87
2023-05-16T00:31:10.444Z,11.73
2023-05-16T00:33:38.187Z,12.53
2023-05-16T00:36:06.320Z,11.60
2023-05-16T00:38:35.540Z,12.20
2023-05-16T00:41:04.259Z,12.37
2023-05-16T00:43:32.160Z,12.80
2023-05-16T00:46:00.698Z,12.47
2023-05-16T00:48:32.136Z,12.60
2023-05-16T00:51:01.705Z,12.90
2023-05-16T00:53:29.576Z,12.90
2023-05-16T00:56:00.356Z,12.80
2023-05-16T00:58:29.975Z,13.47
2023-05-16T01:00:58.430Z,14.43
2023-05-16T01:03:27.278Z,14.27
2023-05-16T01:05:55.352Z,13.70
2023-05-16T01:08:23.054Z,14.07
2023-05-16T01:11:00.177Z,14.70
2023-05-16T01:13:34.254Z,15.60
2023-05-16T01:16:07.088Z,15.97
2023-05-16T01:18:42.916Z,15.07
2023-05-16T01:21:13.466Z,16.70
2023-05-16T01:23:45.117Z,16.77
2023-05-16T01:26:24.187Z,17.97
2023-05-16T01:28:53.224Z,18.67
2023-05-16T01:31:21.282Z,17.80
2023-05-16T01:33:49.677Z,18.13
2023-05-16T01:36:22.228Z,19.20
2023-05-16T01:38:58.359Z,18.80
2023-05-16T01:41:32.511Z,18.57
2023-05-16T01:44:01.466Z,19.10
2023-05-16T01:46:32.712Z,18.53
2023-05-16T01:49:05.438Z,17.33
2023-05-16T01:51:34.361Z,17.53
2023-05-16T01:54:06.357Z,17.70
2023-05-16T01:56:38.563Z,18.30
2023-05-16T01:59:07.433Z,16.93
2023-05-16T02:01:35.237Z,18.40
2023-05-16T02:04:03.629Z,18.53
2023-05-16T02:06:31.820Z,17.50
2023-05-16T02:08:59.718Z,17.63
2023-05-16T02:11:27.573Z,16.30
2023-05-16T02:13:56.947Z,16.93
2023-05-16T02:16:24.737Z,16.87
2023-05-16T02:18:52.875Z,17.13
2023-05-16T02:21:20.817Z,17.47
2023-05-16T02:23:49.607Z,17.00
2023-05-16T02:26:17.569Z,16.87
2023-05-16T02:28:45.612Z,16.10
2023-05-16T02:31:15.464Z,16.20
2023-05-16T02:33:43.389Z,16.80
2023-05-16T02:36:11.176Z,17.30
2023-05-16T02:38:39.309Z,16.53
2023-05-16T02:41:06.976Z,16.77
2023-05-16T02:43:34.945Z,16.10
2023-05-16T02:46:05.477Z,14.37
2023-05-16T02:48:34.931Z,16.43
2023-05-16T02:51:02.813Z,16.00
2023-05-16T02:53:31.317Z,16.80
2023-05-16T02:55:59.208Z,16.50
2023-05-16T02:58:26.985Z,16.20
2023-05-16T03:00:54.694Z,16.90
2023-05-16T03:03:22.700Z,16.20
2023-05-16T03:05:52.422Z,15.43
2023-05-16T03:08:20.300Z,17.40
2023-05-16T03:10:48.220Z,16.60
2023-05-16T03:13:15.908Z,17.60
2023-05-16T03:15:45.907Z,16.20
2023-05-16T03:18:14.272Z,16.87
2023-05-16T03:20:43.968Z,16.40
2023-05-16T03:23:13.210Z,17.10
2023-05-16T03:25:43.126Z,18.10
2023-05-16T03:28:11.972Z,16.43
2023-05-16T03:30:41.924Z,17.70
2023-05-16T03:33:09.663Z,17.40
2023-05-16T03:35:37.801Z,17.07
2023-05-16T03:38:05.658Z,17.67
2023-05-16T03:40:35.139Z,17.50
2023-05-16T03:43:02.842Z,18.17
2023-05-16T03:45:31.904Z,17.00
2023-05-16T03:48:00.455Z,18.30
2023-05-16T03:50:28.724Z,18.43
2023-05-16T03:52:57.093Z,19.70
2023-05-16T03:55:25.661Z,19.87
2023-05-16T03:57:54.889Z,18.63
2023-05-16T04:00:22.800Z,19.60
2023-05-16T04:02:50.747Z,20.37
2023-05-16T04:05:18.578Z,18.80
2023-05-16T04:07:46.226Z,18.43
2023-05-16T04:10:14.388Z,18.83
2023-05-16T04:12:42.111Z,19.03
2023-05-16T04:15:12.116Z,20.97
2023-05-16T04:17:40.134Z,19.27
2023-05-16T04:20:08.748Z,20.67
2023-05-16T04:22:36.438Z,20.27
2023-05-16T04:25:04.446Z,22.67
2023-05-16T04:27:32.488Z,22.97
2023-05-16T04:30:00.368Z,22.00
2023-05-16T04:32:30.158Z,20.60
2023-05-16T04:34:58.850Z,19.13
2023-05-16T04:37:26.621Z,21.60
2023-05-16T04:39:55.161Z,19.13
2023-05-16T04:42:24.213Z,19.47
2023-05-16T04:44:52.619Z,19.03
2023-05-16T04:47:20.626Z,19.20
2023-05-16T04:49:50.013Z,17.93
2023-05-16T04:52:18.205Z,17.97
2023-05-16T04:54:46.061Z,17.73
2023-05-16T04:57:14.201Z,18.60
2023-05-16T04:59:41.906Z,18.57
2023-05-16T05:02:09.679Z,18.70
2023-05-16T05:04:38.553Z,19.37
2023-05-16T05:07:09.022Z,19.07
2023-05-16T05:09:38.391Z,18.33
2023-05-16T05:12:06.869Z,19.27
2023-05-16T05:14:35.010Z,20.60
2023-05-16T05:17:02.717Z,19.00
2023-05-16T05:19:30.691Z,19.00
2023-05-16T05:21:58.578Z,18.77
2023-05-16T05:24:27.951Z,17.30
2023-05-16T05:26:56.166Z,18.90
2023-05-16T05:29:24.007Z,17.63
2023-05-16T05:31:51.780Z,18.10
2023-05-16T05:34:19.506Z,19.10
2023-05-16T05:36:49.901Z,20.37
2023-05-16T05:39:17.541Z,21.93
2023-05-16T05:41:46.726Z,21.67
2023-05-16T05:44:14.714Z,21.30
2023-05-16T05:46:42.435Z,20.33
2023-05-16T05:49:10.153Z,20.57
2023-05-16T05:51:38.527Z,17.80
2023-05-16T05:54:06.334Z,17.50
2023-05-16T05:56:34.296Z,17.60
2023-05-16T05:59:03.934Z,17.57
2023-05-16T06:01:31.669Z,16.50
2023-05-16T06:04:00.793Z,15.97
2023-05-16T06:06:31.429Z,16.00
2023-05-16T06:08:59.157Z,15.50
2023-05-16T06:11:26.968Z,16.10
2023-05-16T06:13:55.017Z,15.20
2023-05-16T06:16:26.481Z,13.60
2023-05-16T06:18:54.469Z,14.27
2023-05-16T06:21:22.482Z,14.20
2023-05-16T06:23:50.246Z,14.53
2023-05-16T06:26:18.372Z,15.70
2023-05-16T06:28:46.035Z,13.20
2023-05-16T06:31:13.888Z,13.37
2023-05-16T06:33:43.045Z,13.50
2023-05-16T06:36:10.908Z,12.10
2023-05-16T06:38:38.604Z,12.90
2023-05-16T06:41:06.700Z,12.40
2023-05-16T06:43:34.413Z,12.30
2023-05-16T06:46:02.285Z,12.53
2023-05-16T06:48:30.270Z,11.50
2023-05-16T06:50:59.850Z,12.40
2023-05-16T06:53:28.641Z,12.67
2023-05-16T06:55:57.182Z,12.80
2023-05-16T06:58:25.306Z,12.70
2023-05-16T07:00:53.295Z,12.27
2023-05-16T07:03:21.505Z,11.50
2023-05-16T07:05:51.552Z,10.93
2023-05-16T07:08:20.702Z,10.27
2023-05-16T07:10:48.654Z,10.57
2023-05-16T07:13:16.394Z,10.30
2023-05-16T07:15:44.554Z,9.00
2023-05-16T07:18:12.386Z,9.30
2023-05-16T07:20:40.469Z,9.03
2023-05-16T07:23:08.249Z,8.23
2023-05-16T07:25:37.633Z,8.60
2023-05-16T07:28:05.573Z,8.40
2023-05-16T07:30:33.360Z,7.90
2023-05-16T07:33:01.594Z,7.63
2023-05-16T07:35:29.478Z,7.83
2023-05-16T07:37:57.454Z,7.23
2023-05-16T07:40:28.557Z,6.97
2023-05-16T07:42:57.928Z,6.80
2023-05-16T07:45:25.922Z,7.40
2023-05-16T07:47:54.029Z,5.87
2023-05-16T07:50:22.064Z,7.10
2023-05-16T07:52:49.731Z,6.60
2023-05-16T07:55:17.888Z,6.37
2023-05-16T07:57:47.023Z,6.73
2023-05-16T08:00:16.863Z,7.07
2023-05-16T08:02:45.109Z,6.13
2023-05-16T08:05:13.668Z,6.30
2023-05-16T08:07:41.557Z,6.23
2023-05-16T08:10:12.581Z,6.03
2023-05-16T08:12:41.698Z,5.80
2023-05-16T08:15:10.065Z,4.77
2023-05-16T08:17:39.370Z,4.97
2023-05-16T08:20:08.153Z,4.90
2023-05-16T08:22:35.971Z,4.63
2023-05-16T08:25:03.763Z,5.47
2023-05-16T08:27:32.025Z,5.60
2023-05-16T08:29:59.713Z,5.90
2023-05-16T08:32:27.943Z,6.20
2023-05-16T08:34:57.821Z,5.60
2023-05-16T08:37:25.883Z,5.67
2023-05-16T08:39:53.577Z,4.90
2023-05-16T08:42:22.525Z,4.50
2023-05-16T08:44:50.269Z,4.73
2023-05-16T08:47:21.695Z,4.93
2023-05-16T08:49:50.298Z,5.53
2023-05-16T08:52:20.126Z,4.47
2023-05-16T08:54:55.289Z,4.63
2023-05-16T08:57:34.810Z,4.63
2023-05-16T09:00:11.444Z,4.60
2023-05-16T09:02:39.637Z,4.03
2023-05-16T09:05:09.422Z,3.60
2023-05-16T09:07:38.637Z,3.80
2023-05-16T09:10:08.056Z,3.40
2023-05-16T09:12:36.389Z,3.53
2023-05-16T09:15:05.027Z,3.30
2023-05-16T09:17:40.133Z,3.43
2023-05-16T09:20:13.411Z,3.90
2023-05-16T09:22:51.960Z,2.87
2023-05-16T09:25:30.298Z,2.97
2023-05-16T09:27:59.947Z,3.20
2023-05-16T09:30:29.900Z,3.70
2023-05-16T09:32:57.743Z,3.40
2023-05-16T09:35:39.703Z,3.67
2023-05-16T09:38:16.859Z,3.43
2023-05-16T09:40:45.622Z,3.30
2023-05-16T09:43:16.504Z,3.50
2023-05-16T09:45:47.685Z,3.50
2023-05-16T09:48:16.834Z,3.50
2023-05-16T09:50:49.771Z,2.87
2023-05-16T09:53:19.501Z,2.53
2023-05-16T09:55:47.683Z,2.73
2023-05-16T09:58:18.063Z,2.73
2023-05-16T10:00:47.247Z,2.40
2023-05-16T10:03:16.390Z,2.70
2023-05-16T10:05:44.306Z,2.60
2023-05-16T10:08:14.978Z,2.60
2023-05-16T10:10:44.251Z,2.80
2023-05-16T10:13:12.801Z,2.17
2023-05-16T10:15:40.837Z,3.40
2023-05-16T10:18:11.899Z,2.43
2023-05-16T10:20:40.915Z,2.80
2023-05-16T10:23:10.699Z,4.00
2023-05-16T10:25:42.028Z,3.17
2023-05-16T10:28:11.419Z,2.93
2023-05-16T10:30:41.515Z,3.10
2023-05-16T10:33:09.790Z,3.90
2023-05-16T10:35:38.086Z,4.00
2023-05-16T10:38:08.284Z,3.37
2023-05-16T10:40:58.038Z,4.10
2023-05-16T10:43:27.938Z,4.40
2023-05-16T10:45:56.260Z,3.80
2023-05-16T10:48:30.002Z,3.60
2023-05-16T10:50:58.338Z,3.60
2023-05-16T10:53:31.108Z,4.00
2023-05-16T10:56:17.810Z,3.60
2023-05-16T10:58:50.926Z,4.20
2023-05-16T11:01:23.022Z,3.30
2023-05-16T11:04:16.801Z,3.63
2023-05-16T11:06:52.987Z,3.90
2023-05-16T11:09:25.073Z,3.30
2023-05-16T11:11:59.670Z,4.07
2023-05-16T11:14:32.744Z,4.03
2023-05-16T11:17:04.114Z,4.53
2023-05-16T11:19:33.988Z,3.30
2023-05-16T11:22:23.954Z,4.30
2023-05-16T11:24:54.114Z,3.47
2023-05-16T11:27:24.162Z,3.10
2023-05-16T11:29:54.936Z,3.80
2023-05-16T11:32:24.542Z,4.00
2023-05-16T11:34:54.612Z,2.70
2023-05-16T11:37:23.849Z,3.27
2023-05-16T11:39:52.209Z,3.73
2023-05-16T11:42:20.851Z,3.30
2023-05-16T11:44:48.950Z,3.80
2023-05-16T11:47:19.295Z,3.07
2023-05-16T11:49:49.467Z,4.30
2023-05-16T11:52:18.292Z,3.47
2023-05-16T11:54:47.136Z,3.00
2023-05-16T11:57:16.630Z,2.80
2023-05-16T11:59:45.898Z,3.30
2023-05-16T12:02:16.355Z,3.00
2023-05-16T12:04:51.018Z,2.70
2023-05-16T12:07:23.182Z,2.60
2023-05-16T12:09:54.259Z,2.80
2023-05-16T12:12:24.019Z,2.80
2023-05-16T12:14:53.261Z,2.70
2023-05-16T12:17:22.929Z,2.47
2023-05-16T12:19:53.416Z,2.57
2023-05-16T12:22:22.478Z,2.70
2023-05-16T12:24:53.086Z,2.70
2023-05-16T12:27:23.423Z,2.70
2023-05-16T12:29:52.903Z,2.90
2023-05-16T12:32:22.255Z,3.40
2023-05-16T12:34:54.705Z,3.00
2023-05-16T12:37:23.591Z,5.20
2023-05-16T12:39:52.131Z,3.30
2023-05-16T12:42:21.154Z,3.30
2023-05-16T12:44:49.636Z,2.70
2023-05-16T12:47:17.856Z,3.40
2023-05-16T12:49:47.618Z,4.93
2023-05-16T12:52:20.721Z,4.03
2023-05-16T12:54:50.370Z,3.00
2023-05-16T12:57:20.405Z,3.10
2023-05-16T12:59:48.808Z,2.77
2023-05-16T13:02:19.195Z,2.93
2023-05-16T13:04:47.573Z,2.70
2023-05-16T13:07:15.424Z,2.53
2023-05-16T13:09:45.099Z,2.30
2023-05-16T13:12:14.245Z,2.33
2023-05-16T13:14:43.920Z,2.03
2023-05-16T13:17:12.846Z,2.30
2023-05-16T13:19:40.958Z,2.90
2023-05-16T13:22:08.975Z,2.67
2023-05-16T13:24:37.175Z,2.30
2023-05-16T13:27:06.774Z,2.50
2023-05-16T13:29:34.996Z,2.50
2023-05-16T13:32:04.135Z,2.13
2023-05-16T13:34:32.296Z,2.90
2023-05-16T13:37:00.702Z,2.73
2023-05-16T13:39:29.024Z,4.60
2023-05-16T13:41:57.473Z,3.30
2023-05-16T13:44:27.496Z,2.20
2023-05-16T13:46:57.474Z,2.07
2023-05-16T13:49:26.663Z,2.40
2023-05-16T13:51:58.569Z,2.43
2023-05-16T13:54:26.686Z,3.10
2023-05-16T13:56:55.555Z,2.53
2023-05-16T13:59:45.648Z,2.70
2023-05-16T14:02:16.407Z,2.20
2023-05-16T14:04:46.076Z,2.33
2023-05-16T14:07:15.828Z,2.20
2023-05-16T14:09:45.480Z,2.67
2023-05-16T14:12:14.748Z,2.30
2023-05-16T14:14:42.836Z,2.43
2023-05-16T14:17:11.027Z,2.20
2023-05-16T14:19:40.188Z,2.57
2023-05-16T14:22:08.176Z,2.40
2023-05-16T14:24:36.146Z,2.80
2023-05-16T14:27:04.013Z,2.10
2023-05-16T14:29:31.863Z,2.53
2023-05-16T14:31:59.775Z,2.03
2023-05-16T14:34:27.537Z,2.53
2023-05-16T14:36:56.796Z,2.17
2023-05-16T14:39:24.631Z,2.00
2023-05-16T14:41:52.359Z,1.80
2023-05-16T14:44:21.824Z,2.10
2023-05-16T14:46:50.123Z,2.07
2023-05-16T14:49:17.962Z,1.67
2023-05-16T14:51:49.219Z,1.90
2023-05-16T14:54:19.094Z,2.07
2023-05-16T14:56:47.207Z,1.60
2023-05-16T14:59:15.700Z,1.60
2023-05-16T15:01:43.701Z,2.00
2023-05-16T15:04:11.628Z,1.80
2023-05-16T15:06:40.318Z,1.90
2023-05-16T15:09:08.097Z,1.73
2023-05-16T15:11:37.553Z,1.73
2023-05-16T15:14:07.476Z,1.60
2023-05-16T15:16:36.588Z,1.90
2023-05-16T15:19:04.722Z,1.30
2023-05-16T15:21:32.868Z,1.80
2023-05-16T15:24:00.744Z,1.77
2023-05-16T15:26:29.662Z,1.90
2023-05-16T15:28:59.787Z,1.57
2023-05-16T15:31:28.356Z,1.70
2023-05-16T15:33:56.395Z,2.07
2023-05-16T15:36:26.156Z,3.93
2023-05-16T15:38:54.118Z,2.50
2023-05-16T15:41:37.299Z,2.77
2023-05-16T15:44:13.109Z,2.70
2023-05-16T15:46:42.134Z,2.20
2023-05-16T15:49:10.669Z,2.43
2023-05-16T15:51:39.045Z,1.70
2023-05-16T15:54:09.567Z,2.17
2023-05-16T15:56:37.464Z,1.30
2023-05-16T15:59:05.444Z,1.53
2023-05-16T16:01:34.742Z,1.10
2023-05-16T16:04:02.786Z,1.70
2023-05-16T16:06:31.572Z,1.33
2023-05-16T16:08:59.505Z,2.20
2023-05-16T16:11:27.974Z,2.80
2023-05-16T16:13:56.110Z,2.20
2023-05-16T16:16:25.964Z,2.07
2023-05-16T16:18:56.618Z,2.60
2023-05-16T16:21:26.129Z,1.50
2023-05-16T16:23:54.424Z,1.50
2023-05-16T16:26:22.427Z,2.33
2023-05-16T16:28:51.204Z,1.50
2023-05-16T16:31:19.377Z,2.00
2023-05-16T16:33:49.245Z,2.10
2023-05-16T16:36:19.819Z,2.23
2023-05-16T16:38:47.917Z,2.00
2023-05-16T16:41:16.475Z,2.13
2023-05-16T16:43:46.179Z,2.70
2023-05-16T16:46:14.325Z,2.73
2023-05-16T16:48:42.190Z,2.17
2023-05-16T16:51:10.523Z,2.70
2023-05-16T16:53:40.991Z,1.70
2023-05-16T16:56:09.306Z,2.20
2023-05-16T16:58:37.726Z,2.27
2023-05-16T17:01:05.840Z,2.10
2023-05-16T17:03:34.700Z,2.90
2023-05-16T17:06:03.070Z,2.03
2023-05-16T17:08:31.371Z,1.60
2023-05-16T17:11:05.036Z,1.83
2023-05-16T17:13:34.650Z,1.70
2023-05-16T17:16:02.589Z,1.60
2023-05-16T17:18:33.051Z,1.50
2023-05-16T17:21:03.118Z,1.27
2023-05-16T17:23:30.838Z,1.90
2023-05-16T17:26:01.115Z,1.80
2023-05-16T17:28:31.225Z,1.80
2023-05-16T17:31:00.274Z,2.37
2023-05-16T17:33:28.310Z,1.40
2023-05-16T17:35:57.117Z,2.03
2023-05-16T17:38:25.386Z,2.33
2023-05-16T17:40:53.801Z,2.20
2023-05-16T17:43:23.096Z,2.20
2023-05-16T17:45:51.272Z,1.70
2023-05-16T17:48:19.199Z,2.00
2023-05-16T17:50:47.157Z,2.13
2023-05-16T17:53:16.790Z,3.10
2023-05-16T17:55:44.587Z,2.80
2023-05-16T17:58:12.971Z,2.37
2023-05-16T18:00:42.323Z,1.60
2023-05-16T18:03:11.420Z,1.97
2023-05-16T18:05:39.731Z,2.20
2023-05-16T18:08:08.641Z,2.10
2023-05-16T18:10:59.347Z,2.70
2023-05-16T18:13:29.404Z,1.97
2023-05-16T18:15:58.601Z,2.53
2023-05-16T18:18:27.123Z,2.77
2023-05-16T18:20:56.675Z,2.60
2023-05-16T18:23:24.980Z,2.30
2023-05-16T18:25:53.969Z,2.30
2023-05-16T18:28:23.801Z,1.77
2023-05-16T18:30:51.927Z,2.30
2023-05-16T18:33:21.677Z,2.20
2023-05-16T18:35:49.901Z,2.50
2023-05-16T18:38:31.290Z,1.90
2023-05-16T18:41:00.800Z,2.20
2023-05-16T18:43:29.090Z,2.10
2023-05-16T18:45:57.840Z,2.13
2023-05-16T18:48:29.411Z,2.07
2023-05-16T18:50:57.429Z,2.50
2023-05-16T18:53:25.702Z,9.43
2023-05-16T18:55:56.472Z,2.13
2023-05-16T18:58:24.268Z,2.57
2023-05-16T19:00:52.843Z,2.20
2023-05-16T19:03:20.992Z,3.73
2023-05-16T19:05:50.600Z,2.27
2023-05-16T19:08:18.688Z,2.10
2023-05-16T19:10:47.016Z,1.83
2023-05-16T19:13:15.568Z,2.30
2023-05-16T19:15:43.815Z,2.70
2023-05-16T19:18:11.944Z,2.80
2023-05-16T19:20:39.801Z,2.10
2023-05-16T19:23:09.516Z,1.97
2023-05-16T19:25:38.117Z,2.40
2023-05-16T19:28:06.054Z,1.53
2023-05-16T19:30:35.250Z,1.60
2023-05-16T19:33:04.120Z,1.50
2023-05-16T19:35:32.732Z,1.73
2023-05-16T19:38:00.625Z,2.03
2023-05-16T19:40:30.098Z,1.43
2023-05-16T19:43:01.168Z,2.00
2023-05-16T19:45:30.022Z,1.80
2023-05-16T19:47:58.267Z,1.90
2023-05-16T19:50:26.323Z,2.27
2023-05-16T19:52:54.358Z,1.70
2023-05-16T19:55:22.444Z,1.67
2023-05-16T19:57:52.342Z,1.97
2023-05-16T20:00:21.671Z,2.00
2023-05-16T20:02:49.781Z,2.40
2023-05-16T20:05:22.340Z,1.80
2023-05-16T20:07:51.925Z,1.67
2023-05-16T20:10:21.919Z,2.00
2023-05-16T20:12:51.918Z,1.87
2023-05-16T20:15:20.009Z,2.07
2023-05-16T20:17:47.808Z,1.50
2023-05-16T20:20:16.469Z,3.43
2023-05-16T20:22:44.617Z,1.57
2023-05-16T20:25:13.272Z,1.33
2023-05-16T20:27:42.149Z,2.20
2023-05-16T20:30:12.136Z,1.77
2023-05-16T20:32:41.122Z,1.97
2023-05-16T20:35:11.415Z,2.43
2023-05-16T20:37:41.238Z,1.57
2023-05-16T20:40:09.804Z,1.93
2023-05-16T20:42:37.589Z,1.70
2023-05-16T20:45:07.037Z,1.60
2023-05-16T20:47:36.829Z,1.50
2023-05-16T20:50:06.670Z,1.50
2023-05-16T20:52:35.583Z,1.33
2023-05-16T20:55:03.551Z,1.30
2023-05-16T20:57:31.566Z,1.40
2023-05-16T20:59:59.872Z,1.20
2023-05-16T21:02:27.922Z,1.50
2023-05-16T21:04:59.300Z,1.97
2023-05-16T21:07:37.434Z,1.73
2023-05-16T21:10:06.551Z,1.40
2023-05-16T21:12:34.494Z,1.70
2023-05-16T21:15:03.867Z,1.60
2023-05-16T21:17:32.014Z,2.30
2023-05-16T21:20:01.697Z,1.50
2023-05-16T21:22:29.837Z,2.17
2023-05-16T21:24:57.898Z,2.20
2023-05-16T21:27:25.639Z,2.07
2023-05-16T21:29:53.595Z,1.93
2023-05-16T21:32:21.440Z,2.07
2023-05-16T21:34:49.475Z,1.67
2023-05-16T21:37:18.942Z,2.60
2023-05-16T21:39:46.871Z,1.43
2023-05-16T21:42:14.734Z,4.50
2023-05-16T21:44:43.053Z,1.80
2023-05-16T21:47:10.804Z,1.87
2023-05-16T21:49:38.854Z,2.57
2023-05-16T21:52:07.591Z,1.97
2023-05-16T21:54:37.440Z,2.10
2023-05-16T21:57:06.838Z,2.20
2023-05-16T21:59:34.718Z,2.27
2023-05-16T22:02:02.453Z,1.50
2023-05-16T22:04:31.214Z,2.03
2023-05-16T22:06:59.114Z,3.20
2023-05-16T22:09:26.996Z,3.70
2023-05-16T22:11:56.339Z,1.87
2023-05-16T22:14:24.568Z,1.70
2023-05-16T22:16:52.299Z,1.77
2023-05-16T22:19:20.287Z,1.50
2023-05-16T22:21:48.067Z,1.60
2023-05-16T22:24:16.112Z,1.67
2023-05-16T22:26:43.925Z,1.90
2023-05-16T22:29:13.098Z,1.70
2023-05-16T22:31:41.184Z,1.77
2023-05-16T22:34:09.198Z,1.83
2023-05-16T22:36:36.992Z,1.90
2023-05-16T22:39:06.208Z,1.70
2023-05-16T22:41:34.083Z,1.93
2023-05-16T22:44:01.828Z,1.60
2023-05-16T22:46:30.929Z,1.90
2023-05-16T22:48:59.193Z,1.60
2023-05-16T22:51:26.979Z,1.77
2023-05-16T22:53:54.976Z,1.60
2023-05-16T22:56:22.904Z,1.50
2023-05-16T22:58:50.781Z,1.53
2023-05-16T23:01:18.696Z,1.90
2023-05-16T23:03:48.387Z,1.60
2023-05-16T23:06:16.675Z,1.97
2023-05-16T23:08:44.486Z,2.00
2023-05-16T23:11:12.999Z,2.10
2023-05-16T23:13:40.735Z,2.33
2023-05-16T23:16:10.241Z,3.17
2023-05-16T23:18:38.195Z,2.47
2023-05-16T23:21:07.816Z,2.00
2023-05-16T23:23:35.679Z,2.00
2023-05-16T23:26:04.033Z,1.90
2023-05-16T23:28:31.768Z,2.30
2023-05-16T23:30:59.893Z,2.83
2023-05-16T23:33:28.701Z,2.67
2023-05-16T23:35:57.167Z,2.30
2023-05-16T23:38:27.289Z,2.13
2023-05-16T23:40:55.383Z,2.53
2023-05-16T23:43:23.055Z,2.63
2023-05-16T23:45:50.959Z,2.27
2023-05-16T23:48:19.104Z,1.80
2023-05-16T23:50:46.877Z,1.97
2023-05-16T23:53:14.690Z,2.27
2023-05-16T23:55:44.414Z,1.80
2023-05-16T23:58:12.631Z,1.93
